Time;durP1;ratioP1;P1;durP2;ratioP2;P2;SDS_P1;SDS_P2;PMS_P1;PMS_P2;Temp;Humidity;BMP_temperature;BMP_pressure;BME280_temperature;BME280_humidity;BME280_pressure;Samples;Min_cycle;Max_cycle;Signal;HPM_P1;HPM_P2
2022/03/20 00:00:07;;;;;;;6.78;2.22;;;;;;;2.42;75.07;103584.44;5073276;28;20141;-77
2022/03/20 00:02:33;;;;;;;4.60;2.35;;;;;;;2.45;75.10;103584.41;5089497;28;20130;-80
2022/03/20 00:05:01;;;;;;;6.22;2.40;;;;;;;2.43;75.20;103583.56;5093711;28;20472;-79
2022/03/20 00:07:26;;;;;;;6.55;2.38;;;;;;;2.44;74.95;103582.66;5093842;28;20039;-79
2022/03/20 00:09:52;;;;;;;5.00;2.40;;;;;;;2.46;75.09;103578.25;5092375;28;20036;-79
2022/03/20 00:12:17;;;;;;;3.35;2.08;;;;;;;2.50;75.69;103580.84;5093905;28;20036;-80
2022/03/20 00:14:44;;;;;;;6.35;2.80;;;;;;;2.52;75.38;103574.66;5093692;28;20054;-80
2022/03/20 00:17:09;;;;;;;4.28;2.60;;;;;;;2.52;75.33;103577.28;5093513;28;20387;-79
2022/03/20 00:19:35;;;;;;;7.65;2.75;;;;;;;2.50;75.37;103573.81;5093562;28;20028;-80
2022/03/20 00:22:00;;;;;;;6.85;2.92;;;;;;;2.54;75.85;103570.28;5093318;28;20047;-80
2022/03/20 00:24:26;;;;;;;4.45;2.85;;;;;;;2.54;76.25;103557.13;5093207;28;20039;-80
2022/03/20 00:26:56;;;;;;;7.40;3.60;;;;;;;2.56;76.44;103563.22;5093245;28;20036;-80
2022/03/20 00:29:24;;;;;;;5.65;3.30;;;;;;;2.56;76.89;103557.09;5093637;28;20032;-79
2022/03/20 00:31:49;;;;;;;4.85;3.30;;;;;;;2.51;77.09;103561.53;5093090;28;20541;-79
2022/03/20 00:34:14;;;;;;;5.25;3.65;;;;;;;2.49;77.72;103550.19;5092989;28;20043;-80
2022/03/20 00:36:40;;;;;;;10.52;4.22;;;;;;;2.47;78.21;103558.94;5092735;28;20395;-79
2022/03/20 00:39:05;;;;;;;6.97;4.10;;;;;;;2.46;78.59;103553.72;5092757;28;20063;-80
2022/03/20 00:41:30;;;;;;;9.77;4.70;;;;;;;2.43;79.04;103538.88;5092800;28;20028;-80
2022/03/20 00:43:56;;;;;;;6.35;4.47;;;;;;;2.41;79.64;103542.41;5075083;28;20511;-80
2022/03/20 00:46:21;;;;;;;7.93;4.93;;;;;;;2.41;79.95;103537.16;5093470;28;20153;-79
2022/03/20 00:48:46;;;;;;;9.73;4.57;;;;;;;2.36;80.16;103534.59;5093025;28;20383;-80
2022/03/20 00:51:13;;;;;;;8.18;5.03;;;;;;;2.33;80.45;103537.25;5092871;28;20464;-80
2022/03/20 00:53:39;;;;;;;6.15;4.85;;;;;;;2.31;81.28;103531.13;5092921;28;20081;-80
2022/03/20 00:56:04;;;;;;;8.02;5.40;;;;;;;2.25;81.61;103534.69;5092918;28;20024;-79
2022/03/20 00:58:30;;;;;;;7.40;4.97;;;;;;;2.23;82.00;103522.50;5092921;28;20028;-79
2022/03/20 01:00:55;;;;;;;8.88;5.22;;;;;;;2.20;82.35;103525.16;5092666;28;20040;-79
2022/03/20 01:03:21;;;;;;;6.55;5.25;;;;;;;2.21;82.48;103519.00;5093030;28;20036;-80
2022/03/20 01:05:46;;;;;;;9.15;5.35;;;;;;;2.21;82.83;103516.38;5092765;28;20039;-79
2022/03/20 01:08:11;;;;;;;6.82;5.97;;;;;;;2.18;82.67;103511.16;5092683;28;20060;-80
2022/03/20 01:10:37;;;;;;;8.10;5.55;;;;;;;2.14;83.08;103515.59;5074775;28;20090;-80
2022/03/20 01:13:02;;;;;;;7.28;5.50;;;;;;;2.10;83.51;103506.84;5093213;28;20035;-79
2022/03/20 01:15:28;;;;;;;9.60;6.00;;;;;;;2.06;83.88;103501.66;5093250;28;20140;-79
2022/03/20 01:17:53;;;;;;;10.35;6.07;;;;;;;2.03;84.25;103504.31;5092794;28;20032;-78
2022/03/20 01:20:19;;;;;;;11.05;6.28;;;;;;;2.00;84.46;103494.75;5092872;28;20522;-79
2022/03/20 01:22:45;;;;;;;7.25;6.20;;;;;;;1.99;84.87;103490.38;5096125;28;20036;-80
2022/03/20 01:25:11;;;;;;;12.25;6.22;;;;;;;1.99;84.83;103477.25;5078363;28;20024;-80
2022/03/20 01:27:37;;;;;;;9.00;6.68;;;;;;;1.94;85.06;103485.19;5096563;28;20475;-80
2022/03/20 01:30:04;;;;;;;9.70;6.70;;;;;;;1.94;85.26;103473.78;5096277;28;20032;-79
2022/03/20 01:32:30;;;;;;;11.73;6.97;;;;;;;1.94;85.58;103477.31;5096590;28;20028;-79
2022/03/20 01:34:55;;;;;;;10.70;6.90;;;;;;;1.92;85.61;103472.94;5096403;28;20405;-79
2022/03/20 01:37:21;;;;;;;11.60;6.63;;;;;;;1.87;85.46;103470.38;5096264;28;20038;-79
2022/03/20 01:39:46;;;;;;;10.93;7.10;;;;;;;1.80;85.68;103462.59;5096621;28;20028;-80
2022/03/20 01:42:11;;;;;;;10.15;7.03;;;;;;;1.76;86.13;103459.13;5096248;28;20036;-79
2022/03/20 01:44:37;;;;;;;10.60;7.40;;;;;;;1.72;86.46;103455.69;5096313;28;20529;-79
2022/03/20 01:47:08;;;;;;;11.25;6.97;;;;;;;1.71;86.83;103459.19;5096342;28;20036;-79
2022/03/20 01:49:34;;;;;;;13.13;7.88;;;;;;;1.69;86.80;103447.84;5096240;28;20032;-80
2022/03/20 01:52:11;;;;;;;10.48;7.93;;;;;;;1.65;86.66;103446.13;5078002;28;20046;-79
2022/03/20 01:54:42;;;;;;;15.55;8.10;;;;;;;1.61;86.87;103430.44;5096734;28;20423;-79
2022/03/20 01:57:09;;;;;;;12.07;7.28;;;;;;;1.58;87.32;103441.84;5096273;28;20067;-80
2022/03/20 01:59:36;;;;;;;14.75;8.00;;;;;;;1.52;87.43;103434.91;5096439;28;20032;-80
2022/03/20 02:02:05;;;;;;;13.75;9.68;;;;;;;1.49;87.73;103436.69;5095302;28;20531;-80
2022/03/20 02:04:34;;;;;;;15.10;8.65;;;;;;;1.46;88.05;103427.09;5095850;28;20333;-80
2022/03/20 02:07:00;;;;;;;12.20;8.65;;;;;;;1.41;88.29;103426.28;5095717;28;20036;-79
2022/03/20 02:09:26;;;;;;;17.00;9.32;;;;;;;1.36;88.40;103423.72;5096371;28;20471;-81
2022/03/20 02:11:52;;;;;;;16.23;9.00;;;;;;;1.30;88.61;103415.91;5095959;28;20365;-80
2022/03/20 02:14:17;;;;;;;15.52;8.77;;;;;;;1.31;89.00;103412.38;5095785;28;20036;-79
2022/03/20 02:16:44;;;;;;;13.85;9.15;;;;;;;1.29;89.17;103408.91;5095407;28;20080;-79
2022/03/20 02:19:13;;;;;;;18.15;9.32;;;;;;;1.29;89.22;103410.69;5095425;28;20040;-79
2022/03/20 02:21:43;;;;;;;16.98;9.75;;;;;;;1.28;89.05;103406.31;5095460;28;20081;-79
2022/03/20 02:24:41;;;;;;;13.27;9.63;;;;;;;1.28;89.10;103398.44;5095611;28;20032;-79
2022/03/20 02:27:06;;;;;;;13.85;9.60;;;;;;;1.26;89.21;103394.97;5095935;28;20101;-78
2022/03/20 02:29:32;;;;;;;16.25;9.77;;;;;;;1.29;89.58;103389.69;5095266;28;20028;-79
2022/03/20 02:31:59;;;;;;;15.27;9.13;;;;;;;1.24;89.08;103384.50;5095104;28;20060;-79
2022/03/20 02:34:30;;;;;;;13.40;9.77;;;;;;;1.20;88.92;103378.41;5094088;28;20484;-79
2022/03/20 02:36:57;;;;;;;15.45;9.65;;;;;;;1.17;89.09;103385.44;5095357;28;20036;-78
2022/03/20 02:39:23;;;;;;;16.15;10.50;;;;;;;1.17;89.77;103377.56;5095029;28;20478;-78
2022/03/20 02:41:49;;;;;;;20.67;10.88;;;;;;;1.18;89.67;103377.56;5095257;28;20137;-79
2022/03/20 02:44:16;;;;;;;16.65;10.75;;;;;;;1.21;89.67;103369.66;5094630;28;20032;-79
2022/03/20 02:46:42;;;;;;;15.10;10.05;;;;;;;1.21;89.58;103361.78;5095056;28;20036;-79
2022/03/20 02:49:09;;;;;;;22.42;10.35;;;;;;;1.17;89.34;103365.31;5094742;28;20039;-79
2022/03/20 02:51:38;;;;;;;18.15;10.73;;;;;;;1.14;89.56;103354.00;5094566;28;20444;-79
2022/03/20 02:54:03;;;;;;;18.08;11.63;;;;;;;1.09;89.74;103348.81;5095412;28;20028;-79
2022/03/20 02:56:29;;;;;;;17.10;10.35;;;;;;;1.09;90.30;103353.16;5094676;28;20028;-79
2022/03/20 02:58:55;;;;;;;17.98;10.90;;;;;;;1.04;90.55;103358.47;5094944;28;20028;-79
2022/03/20 03:01:21;;;;;;;17.33;11.60;;;;;;;0.98;90.56;103345.41;5094316;28;20090;-80
2022/03/20 03:03:47;;;;;;;18.65;10.10;;;;;;;0.98;91.08;103346.28;5094931;28;20063;-79
2022/03/20 03:06:13;;;;;;;16.27;10.35;;;;;;;0.95;91.05;103346.31;5094338;28;20044;-78
2022/03/20 03:11:22;;;;;;;15.40;9.50;;;;;;;0.87;90.98;103337.66;5094945;28;20102;-79
2022/03/20 03:13:48;;;;;;;21.45;9.95;;;;;;;0.79;90.89;103335.13;5094362;28;20032;-79
2022/03/20 03:16:15;;;;;;;16.52;10.00;;;;;;;0.75;91.41;103332.53;5075801;28;20544;-78
2022/03/20 03:18:45;;;;;;;15.15;9.93;;;;;;;0.69;92.04;103328.22;5094675;28;20038;-79
2022/03/20 03:21:16;;;;;;;14.90;10.45;;;;;;;0.67;92.13;103333.47;5093895;28;20032;-80
2022/03/20 03:23:42;;;;;;;18.63;10.17;;;;;;;0.67;92.74;103328.25;5094231;28;20032;-79
2022/03/20 03:26:08;;;;;;;15.68;9.52;;;;;;;0.64;92.38;103323.03;5076024;28;20414;-80
2022/03/20 03:28:34;;;;;;;20.10;10.77;;;;;;;0.64;92.65;103323.03;5094143;28;20028;-79
2022/03/20 03:31:11;;;;;;;19.38;11.65;;;;;;;0.62;92.94;103327.41;5094028;28;20043;-79
2022/03/20 03:35:41;;;;;;;16.23;11.02;;;;;;;0.57;93.21;103315.22;5094343;28;20107;-79
2022/03/20 03:36:27;;;;;;;18.38;10.15;;;;;;;0.55;93.55;103317.00;5094254;28;20127;-79
2022/03/20 03:38:53;;;;;;;19.83;10.82;;;;;;;0.52;93.77;103320.50;5093849;28;20098;-79
2022/03/20 03:41:19;;;;;;;18.80;11.23;;;;;;;0.48;93.99;103316.19;5093901;28;20112;-79
2022/03/20 03:43:45;;;;;;;18.38;10.55;;;;;;;0.45;94.12;103311.84;5075691;28;20089;-79
2022/03/20 03:46:10;;;;;;;18.95;11.05;;;;;;;0.42;94.32;103314.47;5093715;28;20024;-79
2022/03/20 03:48:35;;;;;;;14.77;10.10;;;;;;;0.36;94.08;103314.53;5093945;28;20067;-79
2022/03/20 03:51:01;;;;;;;18.98;10.45;;;;;;;0.31;93.89;103314.56;5075342;28;20036;-79
2022/03/20 03:53:26;;;;;;;17.27;10.52;;;;;;;0.26;93.63;103305.00;5093550;28;20028;-79
2022/03/20 03:55:51;;;;;;;23.38;10.38;;;;;;;0.23;93.76;103299.81;5093399;28;20036;-79
2022/03/20 03:58:17;;;;;;;16.33;10.07;;;;;;;0.19;94.14;103304.16;5074934;28;20154;-79
2022/03/20 04:00:43;;;;;;;17.58;10.43;;;;;;;0.12;94.05;103295.50;5093260;28;20417;-78
2022/03/20 04:03:08;;;;;;;18.88;10.20;;;;;;;0.05;93.60;103285.97;5093978;28;20094;-79
2022/03/20 04:05:34;;;;;;;17.60;10.27;;;;;;;-0.01;93.44;103293.84;5092985;28;20040;-79
2022/03/20 04:08:00;;;;;;;16.95;10.20;;;;;;;-0.06;93.75;103279.91;5092841;28;20127;-79
2022/03/20 04:10:26;;;;;;;12.57;9.45;;;;;;;-0.13;93.83;103276.47;5093255;28;20075;-79
2022/03/20 04:12:51;;;;;;;16.33;11.25;;;;;;;-0.14;94.24;103273.88;5092953;28;20438;-79
2022/03/20 04:15:22;;;;;;;15.90;10.20;;;;;;;-0.21;94.64;103270.41;5092833;28;20461;-79
2022/03/20 04:17:47;;;;;;;16.20;10.35;;;;;;;-0.25;94.20;103266.09;5093734;28;20059;-80
2022/03/20 04:20:13;;;;;;;16.27;9.80;;;;;;;-0.29;94.30;103267.84;5092912;28;20487;-78
2022/03/20 04:22:40;;;;;;;14.55;9.88;;;;;;;-0.33;94.25;103260.03;5093530;28;20051;-79
2022/03/20 04:25:07;;;;;;;15.27;10.52;;;;;;;-0.37;94.00;103246.13;5075506;28;20036;-79
2022/03/20 04:27:33;;;;;;;20.13;10.63;;;;;;;-0.37;94.20;103246.13;5093218;28;20087;-78
2022/03/20 04:29:59;;;;;;;17.75;11.00;;;;;;;-0.41;94.98;103241.78;5092741;28;20464;-79
2022/03/20 04:32:24;;;;;;;20.60;11.52;;;;;;;-0.42;95.93;103237.41;5092917;28;20036;-78
2022/03/20 04:34:50;;;;;;;20.85;12.27;;;;;;;-0.42;96.70;103230.44;5092982;28;20032;-79
2022/03/20 04:37:17;;;;;;;23.35;12.07;;;;;;;-0.44;97.02;103234.81;5093071;28;20032;-78
2022/03/20 04:39:43;;;;;;;22.42;12.20;;;;;;;-0.40;97.18;103233.06;5092850;28;20043;-79
2022/03/20 04:42:09;;;;;;;26.10;13.73;;;;;;;-0.33;97.71;103234.72;5092822;28;20032;-79
2022/03/20 04:44:35;;;;;;;22.95;12.38;;;;;;;-0.30;98.02;103233.84;5092658;28;20129;-78
2022/03/20 04:47:00;;;;;;;23.60;13.68;;;;;;;-0.28;97.74;103234.72;5093022;28;20107;-79
2022/03/20 05:00:22;;;;;;;21.50;12.75;;;;;;;-0.19;97.11;103208.50;5092796;28;20036;-77
2022/03/20 05:02:49;;;;;;;21.83;12.20;;;;;;;-0.21;96.72;103200.66;5093272;28;20055;-78
2022/03/20 05:05:18;;;;;;;19.17;12.38;;;;;;;-0.22;96.76;103198.91;5092674;28;20024;-78
2022/03/20 05:07:43;;;;;;;21.88;12.25;;;;;;;-0.22;96.51;103201.53;5074423;28;20392;-78
2022/03/20 05:15:37;;;;;;;22.52;13.00;;;;;;;-0.24;96.09;103199.78;5093111;28;20119;-79
2022/03/20 05:18:03;;;;;;;23.75;13.13;;;;;;;-0.27;95.86;103195.47;5092461;28;20051;-79
2022/03/20 05:20:29;;;;;;;22.05;13.38;;;;;;;-0.34;95.71;103185.91;5092162;28;20495;-78
2022/03/20 05:22:54;;;;;;;27.85;15.75;;;;;;;-0.34;95.52;103185.91;5092553;28;20028;-78
2022/03/20 05:25:20;;;;;;;25.88;14.82;;;;;;;-0.36;95.60;103179.81;5092419;28;20365;-77
2022/03/20 05:27:46;;;;;;;23.90;15.25;;;;;;;-0.37;95.72;103171.09;5092467;28;20499;-78
2022/03/20 05:30:11;;;;;;;25.63;15.50;;;;;;;-0.38;95.52;103169.34;5092351;28;20110;-78
2022/03/20 05:32:39;;;;;;;21.55;14.65;;;;;;;-0.44;95.08;103153.72;5092393;28;20106;-77
2022/03/20 05:35:06;;;;;;;26.45;16.30;;;;;;;-0.47;95.18;103152.88;5092594;28;20097;-78
2022/03/20 05:37:31;;;;;;;29.33;15.95;;;;;;;-0.51;95.25;103146.78;5092314;28;20036;-78
2022/03/20 05:39:57;;;;;;;26.02;16.08;;;;;;;-0.55;95.38;103145.09;5092827;28;20028;-78
2022/03/20 05:42:23;;;;;;;26.45;16.33;;;;;;;-0.57;95.60;103142.50;5074584;28;20457;-80
2022/03/20 05:44:48;;;;;;;28.42;16.95;;;;;;;-0.63;95.74;103132.03;5092766;28;20110;-78
2022/03/20 05:47:13;;;;;;;32.67;16.50;;;;;;;-0.67;95.65;103132.06;5074488;28;20143;-78
2022/03/20 05:49:39;;;;;;;31.83;18.73;;;;;;;-0.71;95.74;103132.09;5092134;28;20105;-78
2022/03/20 05:52:06;;;;;;;35.05;19.38;;;;;;;-0.68;95.64;103135.59;5092256;28;20118;-79
2022/03/20 05:54:31;;;;;;;34.38;21.33;;;;;;;-0.65;96.13;103136.44;5074264;28;20038;-79
2022/03/20 05:59:40;;;;;;;36.92;20.10;;;;;;;-0.64;96.60;103134.66;5092817;28;20051;-79
2022/03/20 06:02:09;;;;;;;35.45;20.75;;;;;;;-0.59;97.01;103139.00;5092113;28;20048;-79
2022/03/20 06:04:35;;;;;;;31.42;19.77;;;;;;;-0.51;97.23;103131.09;5075226;28;20060;-79
2022/03/20 06:07:00;;;;;;;37.08;20.27;;;;;;;-0.44;97.22;103131.94;5092231;28;20032;-79
2022/03/20 06:09:26;;;;;;;32.42;19.30;;;;;;;-0.34;97.33;103117.00;5094855;28;20107;-78
2022/03/20 06:11:52;;;;;;;31.10;17.58;;;;;;;-0.21;96.93;103111.69;5096110;28;20118;-80
2022/03/20 06:14:17;;;;;;;24.98;17.02;;;;;;;-0.09;96.50;103115.94;5077562;28;20036;-79
2022/03/20 06:16:47;;;;;;;31.27;16.73;;;;;;;0.03;96.17;103116.69;5095627;28;20074;-79
2022/03/20 06:19:14;;;;;;;29.52;16.25;;;;;;;0.13;95.62;103110.47;5096042;28;20189;-79
2022/03/20 06:21:39;;;;;;;28.33;15.95;;;;;;;0.25;95.26;103104.25;5095418;28;20032;-79
2022/03/20 06:24:05;;;;;;;26.35;15.63;;;;;;;0.38;94.57;103112.84;5095828;28;20055;-79
2022/03/20 06:26:30;;;;;;;25.08;15.30;;;;;;;0.49;93.71;103110.94;5077894;28;20445;-78
2022/03/20 06:28:55;;;;;;;25.83;14.10;;;;;;;0.60;93.16;103103.84;5095520;28;20032;-80
2022/03/20 06:31:22;;;;;;;24.52;14.30;;;;;;;0.74;92.39;103097.56;5095609;28;20040;-79
2022/03/20 06:33:48;;;;;;;22.55;13.30;;;;;;;0.84;91.91;103096.56;5095773;28;20376;-78
2022/03/20 06:36:14;;;;;;;22.38;14.00;;;;;;;1.00;90.85;103100.69;5095513;28;20028;-79
2022/03/20 06:38:40;;;;;;;23.45;14.27;;;;;;;1.11;90.16;103103.16;5095306;28;20024;-79
2022/03/20 06:41:07;;;;;;;22.00;14.18;;;;;;;1.21;89.25;103103.91;5077093;28;20036;-79
2022/03/20 06:43:39;;;;;;;26.38;15.00;;;;;;;1.31;88.91;103110.72;5094937;28;20032;-78
2022/03/20 06:46:06;;;;;;;21.83;13.93;;;;;;;1.41;88.27;103112.31;5095315;28;20036;-79
2022/03/20 06:48:31;;;;;;;24.10;14.25;;;;;;;1.52;87.33;103101.66;5094884;28;20040;-78
2022/03/20 06:50:57;;;;;;;21.65;14.40;;;;;;;1.63;86.46;103100.59;5094914;28;20086;-79
2022/03/20 06:53:22;;;;;;;21.98;13.70;;;;;;;1.72;84.67;103106.56;5094531;28;20032;-79
2022/03/20 06:55:48;;;;;;;26.77;14.95;;;;;;;1.81;85.05;103108.16;5094513;28;20070;-79
2022/03/20 06:58:16;;;;;;;26.25;13.75;;;;;;;1.87;84.29;103110.69;5076328;28;20024;-79
2022/03/20 07:00:41;;;;;;;27.02;14.65;;;;;;;1.93;83.52;103107.94;5094430;28;20028;-78
2022/03/20 07:03:08;;;;;;;21.05;13.88;;;;;;;1.99;83.18;103106.97;5076580;28;20138;-79
2022/03/20 07:05:35;;;;;;;24.55;14.32;;;;;;;2.03;83.07;103099.88;5094766;28;20032;-78
2022/03/20 07:08:02;;;;;;;23.73;13.95;;;;;;;2.08;81.59;103095.44;5094999;28;20449;-78
2022/03/20 07:10:27;;;;;;;24.20;14.00;;;;;;;2.17;81.41;103089.16;5094647;28;20064;-80
2022/03/20 07:15:39;;;;;;;19.13;12.93;;;;;;;2.34;80.03;103081.78;5095250;28;20063;-78
2022/03/20 07:18:04;;;;;;;21.13;13.70;;;;;;;2.42;79.24;103073.75;5095506;28;20035;-79
2022/03/20 07:20:30;;;;;;;21.27;13.75;;;;;;;2.50;78.47;103069.19;5094010;28;20040;-79
2022/03/20 07:22:55;;;;;;;21.10;13.48;;;;;;;2.63;77.54;103068.03;5094042;28;20085;-79
2022/03/20 07:30:48;;;;;;;18.40;12.50;;;;;;;2.91;75.41;103063.94;5094946;28;20086;-79
2022/03/20 07:33:14;;;;;;;24.35;13.18;;;;;;;2.99;74.91;103059.38;5094375;28;20036;-79
2022/03/20 07:35:42;;;;;;;23.40;13.57;;;;;;;3.12;74.21;103052.03;5094693;28;20039;-78
2022/03/20 07:38:08;;;;;;;21.48;13.77;;;;;;;3.28;73.37;103053.41;5094186;28;20040;-79
2022/03/20 07:40:33;;;;;;;21.73;13.25;;;;;;;3.56;72.31;103041.34;5094351;28;20037;-79
2022/03/20 07:42:59;;;;;;;22.23;13.52;;;;;;;3.76;70.50;103044.28;5093827;28;20058;-79
2022/03/20 07:45:24;;;;;;;22.77;13.93;;;;;;;3.96;70.69;103041.13;5094003;28;20173;-79
2022/03/20 07:47:50;;;;;;;21.15;13.13;;;;;;;4.10;70.09;103034.63;5093963;28;20032;-79
2022/03/20 07:50:15;;;;;;;23.30;13.07;;;;;;;4.19;68.47;103026.44;5093802;28;20432;-80
2022/03/20 07:52:40;;;;;;;22.85;13.48;;;;;;;4.29;68.11;103027.91;5076221;28;20042;-80
2022/03/20 07:55:07;;;;;;;18.92;12.57;;;;;;;4.44;66.95;103023.97;5093765;28;20035;-80
2022/03/20 07:57:38;;;;;;;21.77;13.02;;;;;;;4.65;67.12;103011.91;5093790;28;20032;-81
2022/03/20 08:00:04;;;;;;;21.50;13.57;;;;;;;4.79;65.71;103002.69;5093754;28;20028;-80
2022/03/20 08:02:30;;;;;;;20.85;13.80;;;;;;;4.82;64.65;102994.69;5093250;28;20055;-80
2022/03/20 08:04:55;;;;;;;22.67;14.60;;;;;;;4.84;64.46;102993.72;5093649;28;20438;-80
2022/03/20 08:07:20;;;;;;;21.67;13.18;;;;;;;4.83;63.94;102986.72;5093632;28;20426;-80
2022/03/20 08:09:46;;;;;;;20.75;12.93;;;;;;;5.10;63.54;102999.91;5093463;28;20441;-78
2022/03/20 08:12:11;;;;;;;21.08;13.43;;;;;;;5.23;62.56;102995.97;5093781;28;20067;-80
2022/03/20 08:14:37;;;;;;;23.33;14.02;;;;;;;5.37;62.00;102990.22;5093567;28;20056;-80
2022/03/20 08:17:06;;;;;;;24.08;14.05;;;;;;;5.58;61.07;102987.75;5093539;28;20090;-79
2022/03/20 08:19:32;;;;;;;18.88;12.93;;;;;;;5.63;61.17;102976.09;5093751;28;20055;-80
2022/03/20 08:21:59;;;;;;;19.98;13.18;;;;;;;5.46;60.20;102973.19;5093286;28;20032;-80
2022/03/20 08:24:25;;;;;;;21.88;14.73;;;;;;;5.33;61.09;102972.78;5093605;28;20036;-80
2022/03/20 08:26:50;;;;;;;25.88;14.23;;;;;;;5.13;60.39;102978.72;5094504;28;20096;-80
2022/03/20 08:29:16;;;;;;;20.45;13.77;;;;;;;5.15;60.51;102978.66;5075495;28;20387;-80
2022/03/20 08:31:45;;;;;;;25.27;14.25;;;;;;;5.12;59.92;102987.56;5092895;28;20459;-79
2022/03/20 08:34:12;;;;;;;20.27;13.48;;;;;;;5.07;59.62;102978.91;5093471;28;20126;-81
2022/03/20 08:36:38;;;;;;;26.13;14.35;;;;;;;4.97;60.49;102988.94;5093203;28;20078;-80
2022/03/20 08:39:04;;;;;;;22.83;14.88;;;;;;;4.85;61.25;102982.28;5093033;28;20119;-80
2022/03/20 08:41:31;;;;;;;25.60;15.27;;;;;;;4.73;61.96;102991.44;5093134;28;20028;-80
2022/03/20 08:43:57;;;;;;;27.20;14.85;;;;;;;4.54;61.88;102982.38;5092818;28;20119;-79
2022/03/20 08:46:23;;;;;;;24.73;13.95;;;;;;;4.51;62.93;102979.81;5093126;28;20056;-79
2022/03/20 08:48:48;;;;;;;20.27;13.65;;;;;;;4.55;62.71;102977.06;5092896;28;20039;-79
2022/03/20 08:51:14;;;;;;;24.15;14.52;;;;;;;4.63;62.97;102976.81;5092944;28;20032;-80
2022/03/20 08:53:39;;;;;;;23.60;15.20;;;;;;;4.77;63.37;102973.72;5093485;28;20377;-80
2022/03/20 08:56:05;;;;;;;24.55;16.35;;;;;;;4.80;61.36;102970.13;5075010;28;20101;-80
2022/03/20 08:58:31;;;;;;;27.77;14.45;;;;;;;4.88;61.61;102961.06;5093686;28;20046;-79
2022/03/20 09:00:57;;;;;;;20.48;14.30;;;;;;;4.94;62.17;102955.59;5092732;28;20437;-78
2022/03/20 09:03:23;;;;;;;23.92;14.30;;;;;;;5.01;60.77;102944.81;5093339;28;20059;-79
2022/03/20 09:05:49;;;;;;;23.05;14.40;;;;;;;5.04;61.22;102948.22;5092893;28;20110;-79
2022/03/20 09:08:14;;;;;;;21.25;14.82;;;;;;;5.07;60.80;102949.88;5092794;28;20032;-79
2022/03/20 09:10:39;;;;;;;20.80;14.50;;;;;;;5.05;60.39;102947.31;5092476;28;20063;-79
2022/03/20 09:13:05;;;;;;;20.60;14.52;;;;;;;5.17;59.72;102953.09;5092454;28;20042;-79
2022/03/20 09:15:31;;;;;;;23.27;15.77;;;;;;;5.18;61.13;102945.13;5092795;28;20559;-79
2022/03/20 09:20:42;;;;;;;21.50;14.23;;;;;;;5.00;60.09;102933.41;5092656;28;20065;-79
2022/03/20 09:23:09;;;;;;;31.52;19.02;;;;;;;4.97;60.80;102936.16;5092410;28;20035;-81
2022/03/20 09:25:35;;;;;;;22.20;14.38;;;;;;;5.00;60.88;102933.41;5092632;28;20028;-79
2022/03/20 09:28:03;;;;;;;21.27;15.02;;;;;;;5.00;60.01;102930.78;5092687;28;20484;-79
2022/03/20 09:30:28;;;;;;;23.23;14.82;;;;;;;4.99;60.54;102936.97;5092250;28;20040;-79
2022/03/20 09:32:54;;;;;;;23.52;15.35;;;;;;;4.95;60.54;102925.63;5092069;28;20494;-79
2022/03/20 09:35:19;;;;;;;20.45;13.90;;;;;;;4.94;60.84;102929.19;5092445;28;20463;-79
2022/03/20 09:37:46;;;;;;;22.63;14.30;;;;;;;4.98;61.49;102937.00;5092831;28;20475;-79
2022/03/20 09:40:12;;;;;;;24.88;14.88;;;;;;;4.98;60.50;102923.81;5092203;28;20107;-78
2022/03/20 09:42:38;;;;;;;22.20;15.10;;;;;;;5.03;60.56;102930.69;5094007;28;20027;-79
2022/03/20 09:45:05;;;;;;;24.45;14.60;;;;;;;4.96;59.83;102929.16;5096210;28;20032;-79
2022/03/20 09:47:39;;;;;;;25.02;15.05;;;;;;;5.03;60.57;102929.78;5096155;28;20162;-79
2022/03/20 09:50:05;;;;;;;21.30;14.77;;;;;;;5.02;59.94;102934.22;5096716;28;20192;-79
2022/03/20 09:52:31;;;;;;;21.60;14.68;;;;;;;5.08;59.73;102933.16;5095891;28;20034;-79
2022/03/20 09:55:00;;;;;;;23.65;16.27;;;;;;;5.13;59.69;102939.13;5077467;28;20107;-79
2022/03/20 09:57:30;;;;;;;27.17;14.85;;;;;;;5.12;59.34;102940.91;5096050;28;20024;-79
2022/03/20 09:59:58;;;;;;;23.30;15.18;;;;;;;5.12;58.84;102940.06;5095972;28;20052;-78
2022/03/20 10:02:28;;;;;;;32.13;16.63;;;;;;;5.19;59.03;102938.91;5095670;28;20052;-78
2022/03/20 10:04:53;;;;;;;25.42;15.52;;;;;;;5.26;59.61;102936.94;5095631;28;20036;-78
2022/03/20 10:07:27;;;;;;;26.15;14.88;;;;;;;5.25;59.05;102943.97;5095597;28;20127;-80
2022/03/20 10:10:14;;;;;;;23.17;15.10;;;;;;;5.19;59.20;102944.19;5095736;28;20137;-77
2022/03/20 10:12:55;;;;;;;24.27;14.68;;;;;;;5.21;58.19;102949.41;5095877;28;20031;-79
2022/03/20 10:15:41;;;;;;;27.08;15.65;;;;;;;5.21;58.40;102941.50;5095981;28;20060;-78
2022/03/20 10:18:17;;;;;;;22.98;14.55;;;;;;;5.23;57.46;102932.63;5095770;28;20047;-78
2022/03/20 10:20:50;;;;;;;24.55;16.73;;;;;;;5.29;58.14;102926.28;5095477;28;20157;-79
2022/03/20 10:23:37;;;;;;;22.92;15.32;;;;;;;5.36;58.05;102921.63;5095451;28;20111;-79
2022/03/20 10:26:05;;;;;;;23.73;16.08;;;;;;;5.32;56.87;102915.59;5095169;28;20027;-78
2022/03/20 10:28:39;;;;;;;28.98;15.20;;;;;;;5.34;56.55;102902.34;5095108;28;20020;-80
2022/03/20 10:31:08;;;;;;;28.48;16.63;;;;;;;5.41;56.71;102901.22;5095355;28;20136;-78
2022/03/20 10:33:38;;;;;;;26.02;15.18;;;;;;;5.56;58.00;102890.09;5095158;28;20069;-78
2022/03/20 10:36:10;;;;;;;23.77;15.80;;;;;;;5.97;56.77;102890.34;5095171;28;20032;-77
2022/03/20 10:38:38;;;;;;;;;;;;;;;6.75;53.69;102882.84;5095985;28;20024;-78
2022/03/20 10:41:22;;;;;;;26.08;16.92;;;;;;;7.89;49.99;102864.56;5095284;28;19973;-78
2022/03/20 10:43:49;;;;;;;24.30;16.65;;;;;;;9.00;49.33;102860.94;5095792;28;20028;-78
2022/03/20 10:46:22;;;;;;;24.48;16.77;;;;;;;9.61;45.87;102845.34;5095048;28;20032;-78
2022/03/20 10:48:52;;;;;;;22.58;16.42;;;;;;;10.48;43.21;102834.28;5095602;28;20055;-79
2022/03/20 10:51:26;;;;;;;24.67;17.05;;;;;;;11.89;41.35;102826.53;5094940;28;20108;-79
2022/03/20 10:53:54;;;;;;;25.33;17.33;;;;;;;12.50;37.64;102826.16;5094141;28;20047;-79
2022/03/20 10:56:20;;;;;;;24.85;17.10;;;;;;;12.83;37.35;102841.69;5094669;28;20495;-79
2022/03/20 10:58:45;;;;;;;22.25;17.05;;;;;;;11.90;40.31;102849.59;5094829;28;20024;-79
2022/03/20 11:01:12;;;;;;;22.88;17.92;;;;;;;11.05;41.27;102843.34;5094827;28;20028;-79
2022/03/20 11:03:39;;;;;;;23.85;17.08;;;;;;;10.84;43.26;102841.03;5095523;28;20043;-80
2022/03/20 11:06:09;;;;;;;55.90;18.60;;;;;;;10.40;44.10;102849.81;5095189;28;20472;-80
2022/03/20 11:08:37;;;;;;;29.33;17.92;;;;;;;10.90;44.41;102847.78;5094881;28;20024;-80
2022/03/20 11:11:03;;;;;;;25.98;17.63;;;;;;;10.83;38.85;102852.63;5095271;28;20028;-79
2022/03/20 11:13:32;;;;;;;25.58;18.15;;;;;;;11.01;41.57;102848.00;5094704;28;20139;-79
2022/03/20 11:15:59;;;;;;;25.33;16.65;;;;;;;10.72;40.32;102857.75;5094668;28;20028;-80
2022/03/20 11:18:26;;;;;;;24.92;17.38;;;;;;;10.41;41.23;102859.53;5094509;28;20119;-80
2022/03/20 11:20:53;;;;;;;26.63;18.35;;;;;;;10.11;41.54;102875.41;5094419;28;20454;-80
2022/03/20 11:23:24;;;;;;;28.20;19.27;;;;;;;9.67;42.28;102866.28;5094611;28;20036;-79
2022/03/20 11:25:52;;;;;;;27.23;19.05;;;;;;;8.75;44.76;102874.63;5094541;28;20028;-79
2022/03/20 11:28:20;;;;;;;32.60;21.30;;;;;;;8.34;46.64;102878.34;5095099;28;20044;-79
2022/03/20 11:30:46;;;;;;;34.35;20.65;;;;;;;7.83;47.89;102875.47;5094343;28;20040;-78
2022/03/20 11:33:13;;;;;;;27.02;20.08;;;;;;;7.45;48.37;102874.56;5094091;28;20028;-78
2022/03/20 11:35:38;;;;;;;29.63;19.88;;;;;;;7.25;49.42;102868.34;5094269;28;20024;-78
2022/03/20 11:38:19;;;;;;;30.27;20.27;;;;;;;7.42;49.15;102862.34;5075815;28;20036;-78
2022/03/20 11:41:04;;;;;;;31.90;20.65;;;;;;;7.62;49.98;102852.63;5094023;28;20059;-77
2022/03/20 11:43:30;;;;;;;28.15;20.30;;;;;;;8.10;48.54;102851.22;5094196;28;20032;-78
2022/03/20 11:46:37;;;;;;;28.10;20.08;;;;;;;8.99;47.68;102856.59;5093883;28;20438;-79
2022/03/20 11:49:15;;;;;;;28.92;19.73;;;;;;;9.50;44.26;102859.22;5094066;28;20524;-78
2022/03/20 11:52:07;;;;;;;26.88;18.98;;;;;;;9.87;43.35;102860.72;5095041;28;20391;-79